createdAt,value
2017-09-15T00:00:22.339Z,11.6
2017-09-15T00:01:24.731Z,11.7
2017-09-15T00:02:27.126Z,11.7
2017-09-15T00:03:29.857Z,11.7
2017-09-15T00:04:32.591Z,11.6
2017-09-15T00:05:35.316Z,11.6
2017-09-15T00:06:37.716Z,11.6
2017-09-15T00:07:40.102Z,11.6
2017-09-15T00:08:42.492Z,11.6
2017-09-15T00:09:44.884Z,11.7
2017-09-15T00:10:47.268Z,11.6
2017-09-15T00:11:49.660Z,11.6
2017-09-15T00:12:52.052Z,11.6
2017-09-15T00:13:54.431Z,11.6
2017-09-15T00:14:56.829Z,11.6
2017-09-15T00:15:59.220Z,11.7
2017-09-15T00:17:01.954Z,11.7
2017-09-15T00:18:04.353Z,11.6
2017-09-15T00:19:06.743Z,11.6
2017-09-15T00:20:09.158Z,11.6
2017-09-15T00:21:11.532Z,11.6
2017-09-15T00:22:13.920Z,11.6
2017-09-15T00:23:16.302Z,11.6
2017-09-15T00:24:18.689Z,11.6
2017-09-15T00:25:21.087Z,11.6
2017-09-15T00:26:23.481Z,11.6
2017-09-15T00:27:25.868Z,11.6
2017-09-15T00:28:28.260Z,11.7
2017-09-15T00:29:30.652Z,11.6
2017-09-15T00:30:33.736Z,11.6
2017-09-15T00:31:36.129Z,11.6
2017-09-15T00:32:38.520Z,11.6
2017-09-15T00:33:40.908Z,11.6
2017-09-15T00:34:43.301Z,11.6
2017-09-15T00:35:45.697Z,11.6
2017-09-15T00:36:48.425Z,11.5
2017-09-15T00:37:50.819Z,11.5
2017-09-15T00:38:53.208Z,11.5
2017-09-15T00:39:55.662Z,11.5
2017-09-15T00:40:58.076Z,11.5
2017-09-15T00:42:00.811Z,11.5
2017-09-15T00:43:03.207Z,11.5
2017-09-15T00:44:05.606Z,11.5
2017-09-15T00:45:07.997Z,11.4
2017-09-15T00:46:10.393Z,11.4
2017-09-15T00:47:13.140Z,11.4
2017-09-15T00:48:15.528Z,11.4
2017-09-15T00:49:17.926Z,11.4
2017-09-15T00:50:20.320Z,11.4
2017-09-15T00:51:22.703Z,11.3
2017-09-15T00:52:25.095Z,11.3
2017-09-15T00:53:27.486Z,11.3
2017-09-15T00:54:29.876Z,11.3
2017-09-15T00:55:32.272Z,11.3
2017-09-15T00:56:34.671Z,11.3
2017-09-15T00:57:37.058Z,11.3
2017-09-15T00:58:39.450Z,11.3
2017-09-15T00:59:41.847Z,11.3
2017-09-15T01:00:44.234Z,11.3
2017-09-15T01:01:46.626Z,11.3
2017-09-15T01:02:49.018Z,11.3
2017-09-15T01:03:51.397Z,11.3
2017-09-15T01:04:53.796Z,11.4
2017-09-15T01:05:56.194Z,11.3
2017-09-15T01:06:58.588Z,11.4
2017-09-15T01:08:00.980Z,11.4
2017-09-15T01:09:03.373Z,11.3
2017-09-15T01:10:05.773Z,11.3
2017-09-15T01:11:08.157Z,11.3
2017-09-15T01:12:10.553Z,11.3
2017-09-15T01:13:12.936Z,11.3
2017-09-15T01:14:15.333Z,11.3
2017-09-15T01:15:17.728Z,11.3
2017-09-15T01:16:20.118Z,11.3
2017-09-15T01:17:22.504Z,11.3
2017-09-15T01:18:24.897Z,11.3
2017-09-15T01:19:27.288Z,11.3
2017-09-15T01:20:29.686Z,11.3
2017-09-15T01:21:32.083Z,11.3
2017-09-15T01:22:34.471Z,11.3
2017-09-15T01:23:36.871Z,11.3
2017-09-15T01:24:39.603Z,11.3
2017-09-15T01:25:42.673Z,11.3
2017-09-15T01:26:45.070Z,11.2
2017-09-15T01:27:47.459Z,11.2
2017-09-15T01:28:49.846Z,11.2
2017-09-15T01:29:52.247Z,11.2
2017-09-15T01:30:54.972Z,11.2
2017-09-15T01:31:57.364Z,11.1
2017-09-15T01:32:59.758Z,11.2
2017-09-15T01:34:02.151Z,11.1
2017-09-15T01:35:04.542Z,11.1
2017-09-15T01:36:06.939Z,11.1
2017-09-15T01:37:09.329Z,11.1
2017-09-15T01:38:11.720Z,11.1
2017-09-15T01:39:14.126Z,11.1
2017-09-15T01:40:16.507Z,11.1
2017-09-15T01:41:18.916Z,11.1
2017-09-15T01:42:21.288Z,11
2017-09-15T01:43:23.675Z,11
2017-09-15T01:44:26.069Z,11
2017-09-15T01:45:28.458Z,11
2017-09-15T01:46:30.846Z,11
2017-09-15T01:47:33.243Z,11
2017-09-15T01:48:35.643Z,11
2017-09-15T01:49:38.029Z,11
2017-09-15T01:50:40.427Z,11
2017-09-15T01:51:42.824Z,11
2017-09-15T01:52:45.218Z,11
2017-09-15T01:53:47.604Z,11.1
2017-09-15T01:54:50.001Z,11.1
2017-09-15T01:55:52.391Z,11.1
2017-09-15T01:56:54.783Z,11.1
2017-09-15T01:57:57.172Z,11.1
2017-09-15T01:58:59.569Z,11.1
2017-09-15T02:00:01.968Z,11.1
2017-09-15T02:01:04.707Z,11.1
2017-09-15T02:02:07.092Z,11.1
2017-09-15T02:03:09.481Z,11.1
2017-09-15T02:04:11.873Z,11.2
2017-09-15T02:05:14.265Z,11.1
2017-09-15T02:06:16.656Z,11.1
2017-09-15T02:07:19.050Z,11.2
2017-09-15T02:08:21.446Z,11.2
2017-09-15T02:09:23.833Z,11.2
2017-09-15T02:10:26.220Z,11.2
2017-09-15T02:11:28.669Z,11.2
2017-09-15T02:12:31.057Z,11.3
2017-09-15T02:13:33.465Z,11.3
2017-09-15T02:14:35.844Z,11.3
2017-09-15T02:15:38.580Z,11.3
2017-09-15T02:16:40.972Z,11.3
2017-09-15T02:17:43.701Z,11.3
2017-09-15T02:18:46.092Z,11.3
2017-09-15T02:19:48.492Z,11.3
2017-09-15T02:20:50.878Z,11.4
2017-09-15T02:21:53.264Z,11.6
2017-09-15T02:22:55.661Z,11.4
2017-09-15T02:23:58.053Z,11.4
2017-09-15T02:25:00.443Z,11.3
2017-09-15T02:26:02.834Z,11.3
2017-09-15T02:27:05.216Z,11.3
2017-09-15T02:28:08.293Z,11.3
2017-09-15T02:29:11.019Z,11.3
2017-09-15T02:30:13.412Z,11.3
2017-09-15T02:31:15.807Z,11.3
2017-09-15T02:32:18.199Z,11.4
2017-09-15T02:33:20.594Z,11.4
2017-09-15T02:34:22.987Z,11.4
2017-09-15T02:35:25.739Z,11.4
2017-09-15T02:36:28.443Z,11.4
2017-09-15T02:37:30.831Z,11.4
2017-09-15T02:38:33.219Z,11.4
2017-09-15T02:39:35.614Z,11.4
2017-09-15T02:40:38.007Z,11.4
2017-09-15T02:41:40.399Z,11.4
2017-09-15T02:42:42.789Z,11.4
2017-09-15T02:43:45.188Z,11.4
2017-09-15T02:44:47.573Z,11.4
2017-09-15T02:45:49.978Z,11.4
2017-09-15T02:46:52.366Z,11.4
2017-09-15T02:47:54.753Z,11.4
2017-09-15T02:48:57.146Z,11.3
2017-09-15T02:49:59.542Z,11.3
2017-09-15T02:51:01.928Z,11.3
2017-09-15T02:52:04.324Z,11.3
2017-09-15T02:53:06.715Z,11.4
2017-09-15T02:54:09.107Z,11.4
2017-09-15T02:55:11.499Z,11.4
2017-09-15T02:56:13.889Z,11.3
2017-09-15T02:57:16.278Z,11.3
2017-09-15T02:58:18.680Z,11.3
2017-09-15T02:59:21.067Z,11.3
2017-09-15T03:00:23.467Z,11.3
2017-09-15T03:01:25.856Z,11.3
2017-09-15T03:02:28.252Z,11.3
2017-09-15T03:03:30.640Z,11.3
2017-09-15T03:04:33.030Z,11.3
2017-09-15T03:05:35.417Z,11.4
2017-09-15T03:06:37.803Z,11.4
2017-09-15T03:07:40.200Z,11.4
2017-09-15T03:08:42.951Z,11.4
2017-09-15T03:09:45.333Z,11.4
2017-09-15T03:10:47.729Z,11.4
2017-09-15T03:11:50.131Z,11.4
2017-09-15T03:12:52.524Z,11.4
2017-09-15T03:13:54.919Z,11.3
2017-09-15T03:14:57.313Z,11.3
2017-09-15T03:15:59.699Z,11.3
2017-09-15T03:17:02.100Z,11.3
2017-09-15T03:18:04.488Z,11.3
2017-09-15T03:19:06.863Z,11.3
2017-09-15T03:20:09.263Z,11.3
2017-09-15T03:21:11.657Z,11.3
2017-09-15T03:22:14.053Z,11.3
2017-09-15T03:23:16.439Z,11.3
2017-09-15T03:24:18.837Z,11.2
2017-09-15T03:25:21.233Z,11.2
2017-09-15T03:26:23.620Z,11.2
2017-09-15T03:27:26.019Z,11.2
2017-09-15T03:28:28.405Z,11.2
2017-09-15T03:29:30.794Z,11.2
2017-09-15T03:30:33.190Z,11.3
2017-09-15T03:31:35.582Z,11.2
2017-09-15T03:32:37.962Z,11.2
2017-09-15T03:33:40.356Z,11.2
2017-09-15T03:34:42.739Z,11.2
2017-09-15T03:35:45.140Z,11.2
2017-09-15T03:36:47.533Z,11.1
2017-09-15T03:37:49.915Z,11.2
2017-09-15T03:38:52.312Z,11.1
2017-09-15T03:39:54.708Z,11.2
2017-09-15T03:40:57.099Z,11.2
2017-09-15T03:41:59.501Z,11.2
2017-09-15T03:43:02.240Z,11.2
2017-09-15T03:44:04.973Z,11.2
2017-09-15T03:45:07.375Z,11.2
2017-09-15T03:46:09.761Z,11.2
2017-09-15T03:47:12.149Z,11.2
2017-09-15T03:48:14.536Z,11.2
2017-09-15T03:49:16.933Z,11.1
2017-09-15T03:50:19.315Z,11.2
2017-09-15T03:51:21.709Z,11.2
2017-09-15T03:52:24.107Z,11.2
2017-09-15T03:53:26.499Z,11.2
2017-09-15T03:54:28.886Z,11.2
2017-09-15T03:55:31.279Z,11.2
2017-09-15T03:56:34.036Z,11.2
2017-09-15T03:57:36.431Z,11.2
2017-09-15T03:58:38.816Z,11.2
2017-09-15T03:59:41.537Z,11.2
2017-09-15T04:00:43.925Z,11.1
2017-09-15T04:01:46.660Z,11.1
2017-09-15T04:02:49.052Z,11.1
2017-09-15T04:03:51.459Z,11.1
2017-09-15T04:04:53.843Z,11.1
2017-09-15T04:05:56.230Z,11.1
2017-09-15T04:06:58.624Z,11.1
2017-09-15T04:08:01.023Z,11.1
2017-09-15T04:09:03.411Z,11.1
2017-09-15T04:10:06.141Z,11.1
2017-09-15T04:11:08.529Z,11.1
2017-09-15T04:12:10.922Z,11.1
2017-09-15T04:13:13.311Z,11.1
2017-09-15T04:14:16.053Z,11
2017-09-15T04:15:18.437Z,11.1
2017-09-15T04:16:20.836Z,11
2017-09-15T04:17:23.233Z,11
2017-09-15T04:18:25.977Z,11
2017-09-15T04:19:28.723Z,11
2017-09-15T04:20:31.120Z,11
2017-09-15T04:21:33.510Z,11
2017-09-15T04:22:35.890Z,10.9
2017-09-15T04:23:38.277Z,10.9
2017-09-15T04:24:41.005Z,10.9
2017-09-15T04:25:43.403Z,10.9
2017-09-15T04:26:46.128Z,10.9
2017-09-15T04:27:48.518Z,10.9
2017-09-15T04:28:50.913Z,10.9
2017-09-15T04:29:53.315Z,10.9
2017-09-15T04:30:55.702Z,10.9
2017-09-15T04:31:58.097Z,10.9
2017-09-15T04:33:00.479Z,10.9
2017-09-15T04:34:02.872Z,10.9
2017-09-15T04:35:05.267Z,10.9
2017-09-15T04:36:07.658Z,10.9
2017-09-15T04:37:10.047Z,10.9
2017-09-15T04:38:12.801Z,10.9
2017-09-15T04:39:15.180Z,10.8
2017-09-15T04:40:17.584Z,10.8
2017-09-15T04:41:19.970Z,10.8
2017-09-15T04:42:22.361Z,10.8
2017-09-15T04:43:24.746Z,10.8
2017-09-15T04:44:27.143Z,10.8
2017-09-15T04:45:29.537Z,10.8
2017-09-15T04:46:31.927Z,10.8
2017-09-15T04:47:34.363Z,10.8
2017-09-15T04:48:36.803Z,10.8
2017-09-15T04:49:39.253Z,10.7
2017-09-15T04:50:41.699Z,10.7
2017-09-15T04:51:44.142Z,10.7
2017-09-15T04:52:46.607Z,10.7
2017-09-15T04:53:49.066Z,10.7
2017-09-15T04:54:51.904Z,10.7
2017-09-15T04:55:54.700Z,10.7
2017-09-15T04:56:57.163Z,10.7
2017-09-15T04:57:59.610Z,10.7
2017-09-15T04:59:02.083Z,10.6
2017-09-15T05:00:04.522Z,10.7
2017-09-15T05:01:06.971Z,10.7
2017-09-15T05:02:09.776Z,10.7
2017-09-15T05:03:12.254Z,10.7
2017-09-15T05:04:14.709Z,10.6
2017-09-15T05:05:17.158Z,10.6
2017-09-15T05:06:19.595Z,10.6
2017-09-15T05:07:22.052Z,10.6
2017-09-15T05:08:24.494Z,10.6
2017-09-15T05:09:26.938Z,10.6
2017-09-15T05:10:29.409Z,10.6
2017-09-15T05:11:31.860Z,10.6
2017-09-15T05:12:34.306Z,10.6
2017-09-15T05:13:36.761Z,10.6
2017-09-15T05:14:39.208Z,10.6
2017-09-15T05:15:41.656Z,10.6
2017-09-15T05:16:44.154Z,10.6
2017-09-15T05:17:46.634Z,10.6
2017-09-15T05:18:49.082Z,10.6
2017-09-15T05:19:51.526Z,10.6
2017-09-15T05:20:53.986Z,10.6
2017-09-15T05:21:56.438Z,10.6
2017-09-15T05:22:58.879Z,10.6
2017-09-15T05:24:01.331Z,10.6
2017-09-15T05:25:03.792Z,10.6
2017-09-15T05:26:06.238Z,10.6
2017-09-15T05:27:08.694Z,10.5
2017-09-15T05:28:11.495Z,10.5
2017-09-15T05:29:13.937Z,10.6
2017-09-15T05:30:16.386Z,10.6
2017-09-15T05:31:18.840Z,10.6
2017-09-15T05:32:21.273Z,10.6
2017-09-15T05:33:23.725Z,10.6
2017-09-15T05:34:26.177Z,10.6
2017-09-15T05:35:28.621Z,10.6
2017-09-15T05:36:31.072Z,10.6
2017-09-15T05:37:33.518Z,10.6
2017-09-15T05:38:35.965Z,10.6
2017-09-15T05:39:38.426Z,10.6
2017-09-15T05:40:40.887Z,10.6
2017-09-15T05:41:43.338Z,10.6
2017-09-15T05:42:45.789Z,10.6
2017-09-15T05:43:48.234Z,10.6
2017-09-15T05:44:50.696Z,10.6
2017-09-15T05:45:53.144Z,10.6
2017-09-15T05:46:55.591Z,10.6
2017-09-15T05:47:58.057Z,10.6
2017-09-15T05:49:00.516Z,10.7
2017-09-15T05:50:02.981Z,10.7
2017-09-15T05:51:05.427Z,10.7
2017-09-15T05:52:07.894Z,10.7
2017-09-15T05:53:10.685Z,10.7
2017-09-15T05:54:13.135Z,10.7
2017-09-15T05:55:15.579Z,10.8
2017-09-15T05:56:18.031Z,10.8
2017-09-15T05:57:20.484Z,10.8
2017-09-15T05:58:22.941Z,10.8
2017-09-15T05:59:25.393Z,10.8
2017-09-15T06:00:27.837Z,10.8
2017-09-15T06:01:30.312Z,10.8
2017-09-15T06:02:32.763Z,10.9
2017-09-15T06:03:35.216Z,10.8
2017-09-15T06:04:37.666Z,10.8
2017-09-15T06:05:40.106Z,10.9
2017-09-15T06:06:42.584Z,10.9
2017-09-15T06:07:45.040Z,11
2017-09-15T06:08:47.486Z,11
2017-09-15T06:09:50.627Z,11
2017-09-15T06:10:53.081Z,11
2017-09-15T06:11:55.525Z,11
2017-09-15T06:12:57.983Z,11.1
2017-09-15T06:14:00.434Z,11.1
2017-09-15T06:15:02.877Z,11.1
2017-09-15T06:16:05.323Z,11.1
2017-09-15T06:17:07.768Z,11.1
2017-09-15T06:18:10.557Z,11.1
2017-09-15T06:19:13.020Z,11.1
2017-09-15T06:20:15.471Z,11.1
2017-09-15T06:21:17.921Z,11.1
2017-09-15T06:22:20.376Z,11.2
2017-09-15T06:23:22.820Z,11.2
2017-09-15T06:24:25.261Z,11.2
2017-09-15T06:25:27.709Z,11.2
2017-09-15T06:26:30.162Z,11.2
2017-09-15T06:27:32.609Z,11.3
2017-09-15T06:28:35.068Z,11.3
2017-09-15T06:29:37.513Z,11.3
2017-09-15T06:30:39.963Z,11.4
2017-09-15T06:31:42.418Z,11.3
2017-09-15T06:32:44.863Z,11.4
2017-09-15T06:33:47.325Z,11.4
2017-09-15T06:34:49.773Z,11.4
2017-09-15T06:35:52.224Z,11.4
2017-09-15T06:36:54.668Z,11.4
2017-09-15T06:37:57.461Z,11.4
2017-09-15T06:39:00.248Z,11.4
2017-09-15T06:40:02.694Z,11.5
2017-09-15T06:41:05.141Z,11.5
2017-09-15T06:42:07.585Z,11.5
2017-09-15T06:43:10.378Z,11.5
2017-09-15T06:44:12.822Z,11.5
2017-09-15T06:45:15.265Z,11.5
2017-09-15T06:46:17.720Z,11.5
2017-09-15T06:47:20.534Z,11.6
2017-09-15T06:48:22.950Z,11.6
2017-09-15T06:49:25.396Z,11.6
2017-09-15T06:50:27.868Z,11.6
2017-09-15T06:51:30.297Z,11.7
2017-09-15T06:52:32.741Z,11.7
2017-09-15T06:53:35.183Z,11.7
2017-09-15T06:54:37.623Z,11.8
2017-09-15T06:55:40.080Z,11.8
2017-09-15T06:56:42.525Z,11.8
2017-09-15T06:57:44.971Z,11.9
2017-09-15T06:58:47.427Z,11.9
2017-09-15T06:59:49.868Z,12
2017-09-15T07:00:52.309Z,12
2017-09-15T07:01:54.759Z,12
2017-09-15T07:02:57.199Z,12
2017-09-15T07:03:59.646Z,12.1
2017-09-15T07:05:02.097Z,12.1
2017-09-15T07:06:04.550Z,12.1
2017-09-15T07:07:07.006Z,12.2
2017-09-15T07:08:09.450Z,12.2
2017-09-15T07:09:11.904Z,12.3
2017-09-15T07:10:14.362Z,12.3
2017-09-15T07:11:16.808Z,12.3
2017-09-15T07:12:19.248Z,12.2
2017-09-15T07:13:21.696Z,12.3
2017-09-15T07:14:24.138Z,12.3
2017-09-15T07:15:26.594Z,12.3
2017-09-15T07:16:29.044Z,12.3
2017-09-15T07:17:31.496Z,12.2
2017-09-15T07:18:33.943Z,12.3
2017-09-15T07:19:36.390Z,12.3
2017-09-15T07:20:38.836Z,12.3
2017-09-15T07:21:41.297Z,12.3
2017-09-15T07:22:43.738Z,12.4
2017-09-15T07:23:46.184Z,12.3
2017-09-15T07:24:48.633Z,12.3
2017-09-15T07:25:51.084Z,12.4
2017-09-15T07:26:53.542Z,12.4
2017-09-15T07:27:55.992Z,12.4
2017-09-15T07:28:58.437Z,12.4
2017-09-15T07:30:00.885Z,12.4
2017-09-15T07:31:03.702Z,12.4
2017-09-15T07:32:06.145Z,12.4
2017-09-15T07:33:08.594Z,12.4
2017-09-15T07:34:11.036Z,12.4
2017-09-15T07:35:13.496Z,12.5
2017-09-15T07:36:15.953Z,12.6
2017-09-15T07:37:18.746Z,12.6
2017-09-15T07:38:21.191Z,12.6
2017-09-15T07:39:23.637Z,12.6
2017-09-15T07:40:26.088Z,12.7
2017-09-15T07:41:28.538Z,12.7
2017-09-15T07:42:30.988Z,12.6
2017-09-15T07:43:33.427Z,12.7
2017-09-15T07:44:36.227Z,12.8
2017-09-15T07:45:38.683Z,12.9
2017-09-15T07:46:41.134Z,12.9
2017-09-15T07:47:43.583Z,13
2017-09-15T07:48:46.024Z,13
2017-09-15T07:49:48.469Z,13
2017-09-15T07:50:51.262Z,13.1
2017-09-15T07:51:53.706Z,13.1
2017-09-15T07:52:56.162Z,13.2
2017-09-15T07:53:58.600Z,13.1
2017-09-15T07:55:01.055Z,13.2
2017-09-15T07:56:03.498Z,13.3
2017-09-15T07:57:05.951Z,13.3
2017-09-15T07:58:08.407Z,13.3
2017-09-15T07:59:10.860Z,13.3
2017-09-15T08:00:13.299Z,13.4
2017-09-15T08:01:16.102Z,13.5
2017-09-15T08:02:18.552Z,13.6
2017-09-15T08:03:21.004Z,13.6
2017-09-15T08:04:23.458Z,13.6
2017-09-15T08:05:25.904Z,13.6
2017-09-15T08:06:28.357Z,13.6
2017-09-15T08:07:30.816Z,13.7
2017-09-15T08:08:33.252Z,13.8
2017-09-15T08:09:35.715Z,13.7
2017-09-15T08:10:38.154Z,13.7
2017-09-15T08:11:40.612Z,13.7
2017-09-15T08:12:43.062Z,13.7
2017-09-15T08:13:45.511Z,13.7
2017-09-15T08:14:47.964Z,13.8
2017-09-15T08:15:50.418Z,13.8
2017-09-15T08:16:52.870Z,13.8
2017-09-15T08:17:55.326Z,13.8
2017-09-15T08:18:57.772Z,13.7
2017-09-15T08:20:00.217Z,13.8
2017-09-15T08:21:02.675Z,13.9
2017-09-15T08:22:05.126Z,14.1
2017-09-15T08:23:07.571Z,14.1
2017-09-15T08:24:10.023Z,14.1
2017-09-15T08:25:12.472Z,14.1
2017-09-15T08:26:14.926Z,14.1
2017-09-15T08:27:17.376Z,14.1
2017-09-15T08:28:19.825Z,14.1
2017-09-15T08:29:22.271Z,14.1
2017-09-15T08:30:24.727Z,13.9
2017-09-15T08:31:27.535Z,13.8
2017-09-15T08:32:29.982Z,13.8
2017-09-15T08:33:32.773Z,13.8
2017-09-15T08:34:35.220Z,13.9
2017-09-15T08:35:37.682Z,14
2017-09-15T08:36:40.136Z,14
2017-09-15T08:37:42.580Z,14
2017-09-15T08:38:45.046Z,14.1
2017-09-15T08:39:47.496Z,14.3
2017-09-15T08:40:49.944Z,14.5
2017-09-15T08:41:52.398Z,14.4
2017-09-15T08:42:54.841Z,14.4
2017-09-15T08:43:57.655Z,14.4
2017-09-15T08:45:00.119Z,14.6
2017-09-15T08:46:02.568Z,14.7
2017-09-15T08:47:05.362Z,14.9
2017-09-15T08:48:07.825Z,15.1
2017-09-15T08:49:10.625Z,15.1
2017-09-15T08:50:13.408Z,15.1
2017-09-15T08:51:15.862Z,15.1
2017-09-15T08:52:18.325Z,15
2017-09-15T08:53:20.789Z,14.9
2017-09-15T08:54:23.248Z,14.8
2017-09-15T08:55:25.707Z,15
2017-09-15T08:56:28.157Z,14.9
2017-09-15T08:57:30.623Z,14.9
2017-09-15T08:58:33.069Z,15.1
2017-09-15T08:59:35.517Z,15.2
2017-09-15T09:00:37.973Z,15.2
2017-09-15T09:01:40.417Z,15.2
2017-09-15T09:02:42.881Z,15
2017-09-15T09:03:45.333Z,15.1
2017-09-15T09:04:48.126Z,15.1
2017-09-15T09:05:50.579Z,15.2
2017-09-15T09:06:53.032Z,15.4
2017-09-15T09:07:55.487Z,15.6
2017-09-15T09:08:57.960Z,15.6
2017-09-15T09:10:00.415Z,15.7
2017-09-15T09:11:02.878Z,15.9
2017-09-15T09:12:05.674Z,16.2
2017-09-15T09:13:08.126Z,16
2017-09-15T09:14:10.585Z,16
2017-09-15T09:15:13.035Z,16
2017-09-15T09:16:15.503Z,16
2017-09-15T09:17:17.955Z,16.1
2017-09-15T09:18:20.416Z,16
2017-09-15T09:19:22.876Z,16.1
2017-09-15T09:20:25.338Z,16.4
2017-09-15T09:21:27.793Z,16.6
2017-09-15T09:22:30.258Z,16.5
2017-09-15T09:23:32.707Z,16.5
2017-09-15T09:24:35.504Z,16.8
2017-09-15T09:25:37.960Z,16.8
2017-09-15T09:26:40.410Z,16.8
2017-09-15T09:27:42.867Z,16.8
2017-09-15T09:28:45.320Z,17
2017-09-15T09:29:47.767Z,16.9
2017-09-15T09:30:50.225Z,16.7
2017-09-15T09:31:52.681Z,16.6
2017-09-15T09:32:55.130Z,16.9
2017-09-15T09:33:57.597Z,16.9
2017-09-15T09:35:00.048Z,16.6
2017-09-15T09:36:02.506Z,16.6
2017-09-15T09:37:04.963Z,16.6
2017-09-15T09:38:07.423Z,16.4
2017-09-15T09:39:09.877Z,16.2
2017-09-15T09:40:12.334Z,16.2
2017-09-15T09:41:14.784Z,16.4
2017-09-15T09:42:17.239Z,16.7
2017-09-15T09:43:19.699Z,17
2017-09-15T09:44:22.155Z,17.1
2017-09-15T09:45:24.614Z,17.1
2017-09-15T09:46:27.068Z,17.2
2017-09-15T09:47:29.533Z,17.2
2017-09-15T09:48:31.992Z,16.7
2017-09-15T09:49:34.779Z,16.8
2017-09-15T09:50:37.244Z,16.9
2017-09-15T09:51:39.696Z,16.7
2017-09-15T09:52:42.150Z,16.5
2017-09-15T09:53:44.953Z,16.8
2017-09-15T09:54:47.404Z,17.1
2017-09-15T09:55:49.857Z,17.2
2017-09-15T09:56:52.324Z,17.1
2017-09-15T09:57:54.781Z,16.8
2017-09-15T09:58:57.235Z,16.9
2017-09-15T09:59:59.704Z,17.2
2017-09-15T10:01:02.149Z,17.3
2017-09-15T10:02:04.951Z,17.5
2017-09-15T10:03:07.411Z,17.7
2017-09-15T10:04:09.869Z,17.7
2017-09-15T10:05:12.321Z,17.5
2017-09-15T10:06:14.775Z,17.4
2017-09-15T10:07:17.228Z,17.3
2017-09-15T10:08:19.698Z,17
2017-09-15T10:09:22.150Z,16.8
2017-09-15T10:10:24.605Z,16.6
2017-09-15T10:11:27.402Z,16.8
2017-09-15T10:12:29.865Z,16.7
2017-09-15T10:13:32.671Z,16.6
2017-09-15T10:14:35.133Z,16.6
2017-09-15T10:15:37.580Z,16.8
2017-09-15T10:16:40.379Z,16.8
2017-09-15T10:17:42.833Z,17
2017-09-15T10:18:45.287Z,17.2
2017-09-15T10:19:47.744Z,17.2
2017-09-15T10:20:50.210Z,17
2017-09-15T10:21:52.654Z,16.9
2017-09-15T10:22:55.126Z,17.1
2017-09-15T10:23:57.578Z,17.4
2017-09-15T10:25:00.036Z,17.5
2017-09-15T10:26:02.491Z,17.9
2017-09-15T10:27:04.948Z,17.7
2017-09-15T10:28:07.406Z,18.1
2017-09-15T10:29:09.866Z,18
2017-09-15T10:30:12.325Z,17.8
2017-09-15T10:31:14.795Z,18
2017-09-15T10:32:17.598Z,17.9
2017-09-15T10:33:20.054Z,17.7
2017-09-15T10:34:22.510Z,17.6
2017-09-15T10:35:24.964Z,17.5
2017-09-15T10:36:27.419Z,17.6
2017-09-15T10:37:29.875Z,17.3
2017-09-15T10:38:32.335Z,17.3
2017-09-15T10:39:35.134Z,17.2
2017-09-15T10:40:37.589Z,17.2
2017-09-15T10:41:40.055Z,17
2017-09-15T10:42:42.511Z,17.1
2017-09-15T10:43:45.319Z,17.2
2017-09-15T10:44:48.129Z,17.3
2017-09-15T10:45:50.595Z,17.1
2017-09-15T10:46:53.042Z,17.1
2017-09-15T10:47:55.844Z,17.1
2017-09-15T10:48:58.305Z,17.1
2017-09-15T10:50:00.756Z,17.1
2017-09-15T10:51:03.217Z,17.4
2017-09-15T10:52:05.672Z,17.4
2017-09-15T10:53:08.123Z,17.4
2017-09-15T10:54:10.925Z,17.4
2017-09-15T10:55:13.380Z,17.6
2017-09-15T10:56:15.821Z,17.9
2017-09-15T10:57:18.280Z,18
2017-09-15T10:58:20.735Z,18
2017-09-15T10:59:23.191Z,17.7
2017-09-15T11:00:25.649Z,17.6
2017-09-15T11:01:28.109Z,17.5
2017-09-15T11:02:30.567Z,17.3
2017-09-15T11:03:33.365Z,17.3
2017-09-15T11:04:35.821Z,17.1
2017-09-15T11:05:38.264Z,17.1
2017-09-15T11:06:40.725Z,16.9
2017-09-15T11:07:43.181Z,16.8
2017-09-15T11:08:45.634Z,16.7
2017-09-15T11:09:48.089Z,16.6
2017-09-15T11:10:50.541Z,16.8
2017-09-15T11:11:52.995Z,16.6
2017-09-15T11:12:55.454Z,16.5
2017-09-15T11:13:57.905Z,16.5
2017-09-15T11:15:00.355Z,16.6
2017-09-15T11:16:02.810Z,16.9
2017-09-15T11:17:05.277Z,16.8
2017-09-15T11:18:07.725Z,16.7
2017-09-15T11:19:10.523Z,16.8
2017-09-15T11:20:12.971Z,17.2
2017-09-15T11:21:15.425Z,17.4
2017-09-15T11:22:17.885Z,17.3
2017-09-15T11:23:20.339Z,17.2
2017-09-15T11:24:22.799Z,17.4
2017-09-15T11:25:25.258Z,17.3
2017-09-15T11:26:27.720Z,17.1
2017-09-15T11:27:30.132Z,17.1
2017-09-15T11:28:32.536Z,17.3
2017-09-15T11:29:34.938Z,17.8
2017-09-15T11:30:37.353Z,17.6
2017-09-15T11:31:39.763Z,17.5
2017-09-15T11:32:42.167Z,17.5
2017-09-15T11:33:44.566Z,17.9
2017-09-15T11:34:46.969Z,18.3
2017-09-15T11:35:49.368Z,18.4
2017-09-15T11:36:51.786Z,18.5
2017-09-15T11:37:54.530Z,18.5
2017-09-15T11:38:56.921Z,18.3
2017-09-15T11:39:59.339Z,18.1
2017-09-15T11:41:01.749Z,18
2017-09-15T11:42:04.156Z,17.7
2017-09-15T11:43:06.556Z,17.6
2017-09-15T11:44:09.308Z,17.4
2017-09-15T11:45:11.708Z,17.3
2017-09-15T11:46:14.101Z,17.3
2017-09-15T11:47:16.513Z,17.3
2017-09-15T11:48:18.911Z,17.3
2017-09-15T11:49:21.313Z,17.4
2017-09-15T11:50:23.727Z,17.8
2017-09-15T11:51:26.126Z,18.3
2017-09-15T11:52:28.524Z,18.5
2017-09-15T11:53:30.937Z,18.6
2017-09-15T11:54:33.340Z,18.8
2017-09-15T11:55:35.741Z,18.9
2017-09-15T11:56:38.487Z,18.8
2017-09-15T11:57:40.887Z,18.8
2017-09-15T11:58:43.291Z,19.1
2017-09-15T11:59:45.710Z,19.3
2017-09-15T12:00:48.109Z,19
2017-09-15T12:01:50.514Z,18.7
2017-09-15T12:02:52.917Z,18.4
2017-09-15T12:03:55.327Z,18
2017-09-15T12:04:57.723Z,17.8
2017-09-15T12:06:00.134Z,17.8
2017-09-15T12:07:02.531Z,18.1
2017-09-15T12:08:04.930Z,18.5
2017-09-15T12:09:07.341Z,18.6
2017-09-15T12:10:09.749Z,18.6
2017-09-15T12:11:12.148Z,18.4
2017-09-15T12:12:14.565Z,18.3
2017-09-15T12:13:16.959Z,18.1
2017-09-15T12:14:19.372Z,18
2017-09-15T12:15:21.782Z,17.9
2017-09-15T12:16:24.532Z,17.8
2017-09-15T12:17:26.936Z,18.1
2017-09-15T12:18:29.348Z,18.1
2017-09-15T12:19:31.749Z,18
2017-09-15T12:20:34.158Z,17.9
2017-09-15T12:21:36.566Z,18.2
2017-09-15T12:22:38.973Z,18.6
2017-09-15T12:23:41.385Z,18.9
2017-09-15T12:24:43.781Z,18.9
2017-09-15T12:25:46.184Z,18.9
2017-09-15T12:26:48.927Z,18.5
2017-09-15T12:27:51.329Z,18.2
2017-09-15T12:28:53.739Z,18
2017-09-15T12:29:56.141Z,18
2017-09-15T12:30:58.543Z,17.9
2017-09-15T12:32:00.950Z,17.8
2017-09-15T12:33:03.354Z,17.7
2017-09-15T12:34:05.752Z,17.5
2017-09-15T12:35:08.160Z,17.5
2017-09-15T12:36:10.560Z,17.4
2017-09-15T12:37:13.330Z,17.4
2017-09-15T12:38:15.725Z,17.2
2017-09-15T12:39:18.128Z,17.2
2017-09-15T12:40:20.536Z,17.1
2017-09-15T12:41:22.945Z,17.3
2017-09-15T12:42:25.344Z,17.3
2017-09-15T12:43:27.739Z,17.4
2017-09-15T12:44:30.147Z,17.7
2017-09-15T12:45:32.547Z,17.3
2017-09-15T12:46:34.952Z,17.6
2017-09-15T12:47:37.348Z,17.5
2017-09-15T12:48:39.757Z,17.6
2017-09-15T12:49:42.159Z,17.5
2017-09-15T12:50:44.571Z,17.4
2017-09-15T12:51:46.975Z,17.5
2017-09-15T12:52:49.387Z,17.6
2017-09-15T12:53:52.127Z,17.5
2017-09-15T12:54:54.539Z,17.4
2017-09-15T12:55:56.944Z,17.4
2017-09-15T12:56:59.691Z,17.5
2017-09-15T12:58:02.085Z,17.9
2017-09-15T12:59:04.485Z,18.2
2017-09-15T13:00:06.883Z,18.5
2017-09-15T13:01:09.290Z,18.5
2017-09-15T13:02:11.686Z,18.5
2017-09-15T13:03:14.094Z,18.3
2017-09-15T13:04:16.510Z,18.3
2017-09-15T13:05:18.911Z,18.5
2017-09-15T13:06:21.328Z,18.7
2017-09-15T13:07:23.730Z,18.8
2017-09-15T13:08:26.130Z,19
2017-09-15T13:09:28.546Z,19
2017-09-15T13:10:30.941Z,19
2017-09-15T13:11:33.349Z,19.1
2017-09-15T13:12:35.751Z,19.1
2017-09-15T13:13:38.159Z,19
2017-09-15T13:14:40.568Z,18.8
2017-09-15T13:15:42.966Z,18.7
2017-09-15T13:16:45.369Z,18.4
2017-09-15T13:17:47.805Z,18.2
2017-09-15T13:18:50.201Z,18.1
2017-09-15T13:19:52.618Z,18
2017-09-15T13:20:55.355Z,17.9
2017-09-15T13:21:57.754Z,17.9
2017-09-15T13:23:00.160Z,17.9
2017-09-15T13:24:02.562Z,17.9
2017-09-15T13:25:04.965Z,18.2
2017-09-15T13:26:07.376Z,18.3
2017-09-15T13:27:09.772Z,18.4
2017-09-15T13:28:12.180Z,18.4
2017-09-15T13:29:14.588Z,18.4
2017-09-15T13:30:16.988Z,18.5
2017-09-15T13:31:19.396Z,18.5
2017-09-15T13:32:21.813Z,18.7
2017-09-15T13:33:24.218Z,18.6
2017-09-15T13:34:27.002Z,18.4
2017-09-15T13:35:29.399Z,18.7
2017-09-15T13:36:31.798Z,18.7
2017-09-15T13:37:34.211Z,18.8
2017-09-15T13:38:36.624Z,18.7
2017-09-15T13:39:39.019Z,18.8
2017-09-15T13:40:41.450Z,18.9
2017-09-15T13:41:43.833Z,18.6
2017-09-15T13:42:46.236Z,18.5
2017-09-15T13:43:48.644Z,18.5
2017-09-15T13:44:51.063Z,18.5
2017-09-15T13:45:53.667Z,18.3
2017-09-15T13:46:56.063Z,18.3
2017-09-15T13:47:58.468Z,18.4
2017-09-15T13:49:00.880Z,18.1
2017-09-15T13:50:03.297Z,18.1
2017-09-15T13:51:05.710Z,18.2
2017-09-15T13:52:08.112Z,18.4
2017-09-15T13:53:10.523Z,18.3
2017-09-15T13:54:12.945Z,17.9
2017-09-15T13:55:15.341Z,17.7